Time;durP1;ratioP1;P1;durP2;ratioP2;P2;SDS_P1;SDS_P2;PMS_P1;PMS_P2;Temp;Humidity;BMP_temperature;BMP_pressure;BME280_temperature;BME280_humidity;BME280_pressure;Samples;Min_cycle;Max_cycle;Signal;HPM_P1;HPM_P2
2021/03/07 00:02:19;;;;;;;17.45;6.90;;;-0.10;63.20;;;;;;5039105;28;20037;-76
2021/03/07 00:04:44;;;;;;;15.60;6.60;;;-0.20;63.60;;;;;;5040943;28;20409;-76
2021/03/07 00:07:10;;;;;;;17.20;6.53;;;-0.20;65.20;;;;;;5039413;28;20139;-77
2021/03/07 00:09:35;;;;;;;12.27;6.22;;;-0.20;65.00;;;;;;5041529;28;20037;-76
2021/03/07 00:12:01;;;;;;;13.82;6.78;;;-0.30;65.30;;;;;;5039445;28;20041;-77
2021/03/07 00:14:26;;;;;;;12.77;5.70;;;-0.30;65.80;;;;;;5043318;28;20037;-77
2021/03/07 00:16:52;;;;;;;15.05;5.63;;;-0.30;67.30;;;;;;5044353;28;20071;-76
2021/03/07 00:19:17;;;;;;;15.48;6.60;;;-0.40;66.80;;;;;;5042665;28;20041;-76
2021/03/07 00:21:43;;;;;;;14.13;6.20;;;-0.40;67.30;;;;;;5045314;28;20140;-76
2021/03/07 00:24:09;;;;;;;14.43;6.65;;;-0.40;66.80;;;;;;5044196;28;20067;-76
2021/03/07 00:26:34;;;;;;;14.50;6.53;;;-0.40;67.60;;;;;;5043400;28;20037;-76
2021/03/07 00:29:00;;;;;;;14.55;7.25;;;-0.40;67.50;;;;;;5044184;28;20044;-76
2021/03/07 00:31:26;;;;;;;14.57;5.90;;;-0.40;67.60;;;;;;5042945;28;20108;-76
2021/03/07 00:33:51;;;;;;;14.60;6.72;;;-0.40;67.70;;;;;;5043796;28;20167;-76
2021/03/07 00:36:17;;;;;;;13.70;7.15;;;-0.40;68.40;;;;;;5044371;28;20033;-76
2021/03/07 00:38:42;;;;;;;17.42;6.70;;;-0.40;68.40;;;;;;5044092;28;20037;-75
2021/03/07 00:41:08;;;;;;;13.85;6.60;;;-0.50;70.00;;;;;;5042797;28;20391;-76
2021/03/07 00:43:34;;;;;;;16.58;6.93;;;-0.50;69.80;;;;;;5044361;28;20132;-76
2021/03/07 00:45:59;;;;;;;15.50;6.75;;;-0.50;70.00;;;;;;5044273;28;20045;-76
2021/03/07 00:48:25;;;;;;;15.30;7.10;;;-0.50;69.90;;;;;;5042954;28;20025;-77
2021/03/07 00:50:50;;;;;;;14.05;6.18;;;-0.60;69.80;;;;;;5043505;28;20403;-76
2021/03/07 00:53:16;;;;;;;15.25;6.72;;;-0.50;70.40;;;;;;5042887;28;22264;-77
2021/03/07 00:55:41;;;;;;;12.60;6.30;;;-0.50;70.90;;;;;;5042879;28;20114;-76
2021/03/07 00:58:07;;;;;;;15.43;7.63;;;-0.60;70.70;;;;;;5041304;28;20452;-76
2021/03/07 01:00:32;;;;;;;19.45;7.10;;;-0.60;71.00;;;;;;5043449;28;20025;-77
2021/03/07 01:02:58;;;;;;;19.88;7.55;;;-0.60;71.20;;;;;;5043492;28;20078;-76
2021/03/07 01:05:28;;;;;;;19.67;6.68;;;-0.60;71.70;;;;;;5041569;28;20409;-77
2021/03/07 01:07:53;;;;;;;12.90;6.57;;;-0.60;71.60;;;;;;5042774;28;20598;-77
2021/03/07 01:10:24;;;;;;;16.10;7.40;;;-0.60;71.40;;;;;;5042195;28;20052;-77
2021/03/07 01:12:50;;;;;;;23.13;8.80;;;-0.60;71.60;;;;;;5044637;28;20504;-75
2021/03/07 01:15:27;;;;;;;20.27;8.45;;;-0.60;71.60;;;;;;5041795;28;20045;-75
2021/03/07 01:17:52;;;;;;;15.93;7.20;;;-0.60;71.90;;;;;;5043858;28;20041;-76
2021/03/07 01:20:19;;;;;;;16.13;7.95;;;-0.60;72.30;;;;;;5042442;28;20037;-76
2021/03/07 01:22:44;;;;;;;18.98;7.95;;;-0.70;71.90;;;;;;5040984;28;20091;-76
2021/03/07 01:25:11;;;;;;;23.70;8.57;;;-0.70;72.40;;;;;;5040119;28;20417;-76
2021/03/07 01:27:37;;;;;;;18.77;8.68;;;-0.70;72.70;;;;;;5042125;28;20040;-76
2021/03/07 01:30:08;;;;;;;19.23;7.32;;;-0.80;72.90;;;;;;5042637;28;20641;-76
2021/03/07 01:32:34;;;;;;;21.58;7.90;;;-0.80;73.60;;;;;;5039270;28;20138;-77
2021/03/07 01:35:00;;;;;;;19.80;8.75;;;-0.80;74.20;;;;;;5040241;28;20502;-77
2021/03/07 01:37:26;;;;;;;21.05;8.50;;;-0.80;74.80;;;;;;5041981;28;20111;-76
2021/03/07 01:39:53;;;;;;;23.25;8.70;;;-0.80;75.50;;;;;;5043120;28;20867;-77
2021/03/07 01:42:19;;;;;;;19.45;7.95;;;-0.80;77.00;;;;;;5041675;28;20584;-77
2021/03/07 01:44:45;;;;;;;31.75;8.93;;;-0.80;76.70;;;;;;5040925;28;20067;-76
2021/03/07 01:47:13;;;;;;;18.88;8.52;;;-0.80;76.70;;;;;;5041853;28;20490;-76
2021/03/07 01:49:39;;;;;;;19.20;7.97;;;-0.90;76.90;;;;;;5039721;28;20228;-76
2021/03/07 01:52:05;;;;;;;19.90;8.18;;;-0.90;77.40;;;;;;5041044;28;20128;-77
2021/03/07 01:54:31;;;;;;;20.60;9.05;;;-0.90;78.30;;;;;;5042893;28;20405;-76
2021/03/07 01:56:58;;;;;;;19.88;7.78;;;-0.90;79.40;;;;;;5038946;28;20497;-76
2021/03/07 01:59:27;;;;;;;18.77;7.85;;;-0.90;79.80;;;;;;5041136;28;20541;-77
2021/03/07 02:01:54;;;;;;;22.38;9.90;;;-0.90;79.70;;;;;;5038612;28;20544;-77
2021/03/07 02:04:19;;;;;;;17.95;8.52;;;-0.90;80.90;;;;;;5039263;28;20037;-77
2021/03/07 02:06:45;;;;;;;18.60;7.93;;;-1.00;81.00;;;;;;5039816;28;20454;-77
2021/03/07 02:09:10;;;;;;;18.83;7.82;;;-1.00;82.00;;;;;;5041565;28;20040;-76
2021/03/07 02:11:38;;;;;;;19.13;8.80;;;-1.00;81.80;;;;;;5039864;28;20417;-76
2021/03/07 02:14:06;;;;;;;18.13;8.10;;;-1.00;82.30;;;;;;5040536;28;20147;-76
2021/03/07 02:16:33;;;;;;;19.73;7.97;;;-1.00;83.60;;;;;;5039387;28;20367;-76
2021/03/07 02:18:59;;;;;;;20.08;7.95;;;-1.00;84.00;;;;;;5039078;28;20073;-77
2021/03/07 02:21:33;;;;;;;18.40;8.15;;;-1.10;84.20;;;;;;5040904;28;20382;-77
2021/03/07 02:24:06;;;;;;;23.13;8.03;;;-1.00;86.00;;;;;;5036096;28;20517;-77
2021/03/07 02:26:34;;;;;;;21.48;8.30;;;-1.10;86.00;;;;;;5040402;28;20386;-77
2021/03/07 02:29:01;;;;;;;23.42;9.10;;;-1.00;86.30;;;;;;5038983;28;22227;-76
2021/03/07 02:31:28;;;;;;;25.20;8.98;;;-1.10;86.50;;;;;;5040470;28;20029;-77
2021/03/07 02:34:00;;;;;;;16.85;8.77;;;-1.10;87.20;;;;;;5042757;28;20476;-76
2021/03/07 02:36:35;;;;;;;19.25;8.93;;;-1.10;87.30;;;;;;5039382;28;20270;-77
2021/03/07 02:39:03;;;;;;;17.40;7.88;;;-1.10;87.70;;;;;;5040441;28;20058;-76
2021/03/07 02:41:30;;;;;;;15.60;8.35;;;-1.10;88.00;;;;;;5041850;28;20135;-77
2021/03/07 02:43:58;;;;;;;20.83;8.27;;;-1.20;88.60;;;;;;5041585;28;20049;-76
2021/03/07 02:46:24;;;;;;;22.80;9.65;;;-1.20;88.60;;;;;;5041270;28;20033;-76
2021/03/07 02:48:58;;;;;;;24.58;9.82;;;-1.10;90.20;;;;;;5041785;28;20040;-76
2021/03/07 02:51:29;;;;;;;21.77;9.05;;;-1.20;89.80;;;;;;5040678;28;20033;-76
2021/03/07 02:54:04;;;;;;;19.75;8.35;;;-1.20;90.40;;;;;;5038331;28;20111;-76
2021/03/07 02:56:31;;;;;;;19.27;8.50;;;-1.20;90.40;;;;;;5040393;28;20642;-77
2021/03/07 02:59:01;;;;;;;17.77;8.43;;;-1.20;90.60;;;;;;5040673;28;20033;-77
2021/03/07 03:01:29;;;;;;;26.13;9.18;;;-1.20;90.50;;;;;;5039332;28;20920;-78
2021/03/07 03:03:55;;;;;;;19.30;9.20;;;-1.20;90.70;;;;;;5041283;28;20580;-76
2021/03/07 03:06:21;;;;;;;25.40;9.98;;;-1.20;91.00;;;;;;5039263;28;20045;-76
2021/03/07 03:08:55;;;;;;;20.52;9.02;;;-1.20;90.80;;;;;;5040236;28;20029;-77
2021/03/07 03:11:24;;;;;;;20.75;8.38;;;-1.30;90.80;;;;;;5038024;28;20038;-77
2021/03/07 03:13:52;;;;;;;23.58;8.55;;;-1.30;90.70;;;;;;5036183;28;20080;-76
2021/03/07 03:16:23;;;;;;;17.73;8.13;;;-1.30;90.80;;;;;;5037218;28;20036;-76
2021/03/07 03:18:49;;;;;;;20.92;8.13;;;-1.40;90.70;;;;;;5038437;28;20032;-77
2021/03/07 03:21:15;;;;;;;26.42;8.73;;;-1.30;90.60;;;;;;5037667;28;20262;-77
2021/03/07 03:23:41;;;;;;;21.42;8.35;;;-1.30;90.90;;;;;;5041030;28;20386;-77
2021/03/07 03:26:08;;;;;;;19.02;7.63;;;-1.30;91.30;;;;;;5037490;28;20108;-77
2021/03/07 03:28:35;;;;;;;21.42;8.63;;;-1.30;91.50;;;;;;5052954;28;20077;-77
2021/03/07 03:31:00;;;;;;;16.20;7.82;;;-1.30;91.50;;;;;;5038379;28;20029;-78
2021/03/07 03:33:26;;;;;;;19.80;8.57;;;-1.40;91.40;;;;;;5037672;28;20036;-76
2021/03/07 03:35:53;;;;;;;20.75;8.68;;;-1.30;91.10;;;;;;5035869;28;20064;-76
2021/03/07 03:38:20;;;;;;;15.82;7.63;;;-1.40;91.00;;;;;;5039600;28;20047;-76
2021/03/07 03:40:52;;;;;;;16.25;8.32;;;-1.40;91.00;;;;;;5038120;28;20051;-75
2021/03/07 03:43:21;;;;;;;17.60;7.97;;;-1.30;91.50;;;;;;5040051;28;20033;-76
2021/03/07 03:45:50;;;;;;;17.45;7.70;;;-1.40;91.40;;;;;;5039366;28;20033;-77
2021/03/07 03:48:18;;;;;;;19.15;8.23;;;-1.40;91.50;;;;;;5035943;28;20526;-76
2021/03/07 03:50:45;;;;;;;21.10;8.13;;;-1.40;91.60;;;;;;5039086;28;20040;-76
2021/03/07 03:53:17;;;;;;;17.88;8.45;;;-1.50;91.60;;;;;;5037496;28;20125;-77
2021/03/07 03:55:47;;;;;;;16.75;7.93;;;-1.50;91.80;;;;;;5038877;28;20155;-77
2021/03/07 03:58:16;;;;;;;16.85;7.75;;;-1.50;91.70;;;;;;5038621;28;20585;-77
2021/03/07 04:00:43;;;;;;;19.42;7.72;;;-1.50;92.00;;;;;;5038258;28;20045;-77
2021/03/07 04:03:17;;;;;;;15.68;8.02;;;-1.50;91.90;;;;;;5035795;28;20122;-77
2021/03/07 04:05:48;;;;;;;18.08;7.60;;;-1.50;92.20;;;;;;5036387;28;20045;-77
2021/03/07 04:08:19;;;;;;;19.25;7.45;;;-1.50;92.20;;;;;;5038087;28;20125;-77
2021/03/07 04:10:45;;;;;;;12.75;7.32;;;-1.60;92.50;;;;;;5040265;28;20040;-76
2021/03/07 04:13:18;;;;;;;17.10;7.32;;;-1.50;92.90;;;;;;5040211;28;20029;-78
2021/03/07 04:15:44;;;;;;;17.25;7.75;;;-1.50;92.80;;;;;;5037498;28;20054;-77
2021/03/07 04:18:13;;;;;;;15.10;6.82;;;-1.60;93.10;;;;;;5038674;28;20041;-78
2021/03/07 04:20:39;;;;;;;19.88;7.35;;;-1.60;93.30;;;;;;5055214;28;20620;-77
2021/03/07 04:23:05;;;;;;;21.17;8.02;;;-1.60;93.40;;;;;;5038866;28;20116;-77
2021/03/07 04:25:30;;;;;;;25.23;7.90;;;-1.50;93.60;;;;;;5038529;28;20053;-76
2021/03/07 04:27:56;;;;;;;21.30;7.38;;;-1.50;93.60;;;;;;5041388;28;20387;-76
2021/03/07 04:30:22;;;;;;;16.73;7.10;;;-1.60;94.10;;;;;;5039871;28;20513;-77
2021/03/07 04:32:51;;;;;;;19.92;7.07;;;-1.60;94.10;;;;;;5038101;28;20033;-76
2021/03/07 04:35:17;;;;;;;15.82;7.07;;;-1.60;94.50;;;;;;5036526;28;20048;-76
2021/03/07 04:37:43;;;;;;;17.17;7.78;;;-1.60;94.40;;;;;;5039127;28;20082;-77
2021/03/07 04:40:09;;;;;;;17.85;8.15;;;-1.60;94.70;;;;;;5039633;28;20136;-76
2021/03/07 04:42:35;;;;;;;18.90;7.88;;;-1.60;94.90;;;;;;5038430;28;20037;-76
2021/03/07 04:45:03;;;;;;;16.48;7.88;;;-1.60;95.00;;;;;;5040957;28;20052;-76
2021/03/07 04:47:28;;;;;;;19.48;7.95;;;-1.70;95.10;;;;;;5039474;28;20045;-77
2021/03/07 04:49:54;;;;;;;20.80;7.57;;;-1.70;95.20;;;;;;5039522;28;20425;-77
2021/03/07 04:52:19;;;;;;;21.08;7.72;;;-1.70;95.10;;;;;;5040197;28;20135;-77
2021/03/07 04:54:45;;;;;;;16.25;7.63;;;-1.70;95.70;;;;;;5038474;28;20068;-77
2021/03/07 04:57:11;;;;;;;19.63;7.80;;;-1.70;95.80;;;;;;5039284;28;20520;-77
2021/03/07 04:59:36;;;;;;;19.40;7.85;;;-1.70;95.80;;;;;;5040876;28;20044;-76
2021/03/07 05:02:02;;;;;;;21.77;7.68;;;-1.70;95.70;;;;;;5040691;28;20086;-77
2021/03/07 05:04:27;;;;;;;23.42;7.43;;;-1.70;95.60;;;;;;5041030;28;20663;-77
2021/03/07 05:06:53;;;;;;;20.70;8.57;;;-1.70;95.70;;;;;;5040470;28;20045;-77
2021/03/07 05:09:19;;;;;;;14.70;7.70;;;-1.70;95.60;;;;;;5041382;28;20508;-77
2021/03/07 05:11:44;;;;;;;17.75;7.57;;;-1.70;95.60;;;;;;5041231;28;20067;-77
2021/03/07 05:14:10;;;;;;;17.67;7.65;;;-1.70;95.50;;;;;;5039687;28;20033;-76
2021/03/07 05:16:35;;;;;;;20.25;7.63;;;-1.60;95.90;;;;;;5040212;28;20469;-77
2021/03/07 05:19:02;;;;;;;18.75;7.47;;;-1.70;95.60;;;;;;5040860;28;20041;-77
2021/03/07 05:21:28;;;;;;;22.10;7.55;;;-1.60;95.70;;;;;;5057479;28;20041;-76
2021/03/07 05:23:59;;;;;;;21.05;8.43;;;-1.70;95.50;;;;;;5041102;28;20038;-76
2021/03/07 05:26:25;;;;;;;18.98;8.38;;;-1.70;95.40;;;;;;5039715;28;20420;-77
2021/03/07 05:28:50;;;;;;;14.27;7.10;;;-1.70;95.50;;;;;;5038088;28;20037;-77
2021/03/07 05:31:16;;;;;;;15.15;7.03;;;-1.70;95.60;;;;;;5039514;28;20082;-77
2021/03/07 05:33:41;;;;;;;18.20;7.95;;;-1.70;95.60;;;;;;5041275;28;20040;-77
2021/03/07 05:36:07;;;;;;;20.52;7.80;;;-1.70;96.20;;;;;;5040123;28;20292;-77
2021/03/07 05:38:33;;;;;;;18.30;8.05;;;-1.70;96.00;;;;;;5037742;28;20610;-76
2021/03/07 05:40:59;;;;;;;17.27;8.60;;;-1.70;96.30;;;;;;5043130;28;20032;-78
2021/03/07 05:43:25;;;;;;;25.88;8.30;;;-1.70;96.50;;;;;;5040732;28;20115;-78
2021/03/07 05:45:51;;;;;;;25.02;7.38;;;-1.70;96.20;;;;;;5040858;28;20110;-77
2021/03/07 05:48:17;;;;;;;18.65;7.32;;;-1.70;96.20;;;;;;5040371;28;20040;-77
2021/03/07 05:50:43;;;;;;;12.77;6.70;;;-1.70;96.10;;;;;;5042683;28;20033;-78
2021/03/07 05:53:10;;;;;;;16.92;7.32;;;-1.70;96.00;;;;;;5041284;28;20098;-77
2021/03/07 05:55:36;;;;;;;20.30;7.78;;;-1.70;96.00;;;;;;5035236;28;20288;-77
2021/03/07 05:58:03;;;;;;;15.52;7.43;;;-1.60;95.90;;;;;;5042058;28;20033;-77
2021/03/07 06:00:29;;;;;;;18.67;7.97;;;-1.60;95.90;;;;;;5042853;28;20208;-76
2021/03/07 06:02:54;;;;;;;15.35;6.68;;;-1.60;95.90;;;;;;5035175;28;20037;-77
2021/03/07 06:05:20;;;;;;;14.30;7.10;;;-1.60;95.40;;;;;;5038171;28;20049;-75
2021/03/07 06:07:47;;;;;;;20.00;6.25;;;-1.70;95.70;;;;;;5040765;28;20052;-77
2021/03/07 06:10:16;;;;;;;15.20;6.88;;;-1.60;95.80;;;;;;5054823;28;20033;-75
2021/03/07 06:12:43;;;;;;;22.45;8.57;;;-1.60;95.90;;;;;;5042752;28;20041;-75
2021/03/07 06:15:11;;;;;;;21.02;7.57;;;-1.50;95.90;;;;;;5042592;28;20118;-76
2021/03/07 06:17:45;;;;;;;18.65;6.82;;;-1.50;95.80;;;;;;5041241;28;20508;-76
2021/03/07 06:20:17;;;;;;;13.00;7.18;;;-1.50;95.70;;;;;;5040128;28;20041;-77
2021/03/07 06:22:55;;;;;;;20.55;7.68;;;-1.40;95.20;;;;;;5040659;28;20037;-78
2021/03/07 06:25:21;;;;;;;18.77;7.35;;;-1.30;95.40;;;;;;5040991;28;20517;-77
2021/03/07 06:27:47;;;;;;;16.35;7.55;;;-1.30;95.10;;;;;;5040198;28;20500;-77
2021/03/07 06:30:20;;;;;;;15.38;8.27;;;-1.20;94.80;;;;;;5041128;28;20069;-76
2021/03/07 06:32:54;;;;;;;15.35;7.68;;;-1.20;94.80;;;;;;5043381;28;20693;-76
2021/03/07 06:35:31;;;;;;;17.65;7.25;;;-1.10;94.50;;;;;;5037886;28;20514;-76
2021/03/07 06:37:58;;;;;;;17.58;7.07;;;-1.10;94.10;;;;;;5042585;28;20064;-77
2021/03/07 06:40:39;;;;;;;17.83;6.90;;;-1.00;94.00;;;;;;5038142;28;20170;-76
2021/03/07 06:43:18;;;;;;;18.95;7.32;;;-1.00;93.80;;;;;;5040880;28;20047;-76
2021/03/07 06:45:45;;;;;;;18.75;7.60;;;-0.90;93.30;;;;;;5040602;28;20425;-77
2021/03/07 06:48:11;;;;;;;19.10;7.43;;;-0.80;93.10;;;;;;5040843;28;20105;-76
2021/03/07 06:50:55;;;;;;;18.58;6.97;;;-0.70;92.90;;;;;;5042162;28;20710;-76
2021/03/07 06:53:32;;;;;;;13.33;6.20;;;-0.60;92.40;;;;;;5041553;28;20049;-77
2021/03/07 06:55:58;;;;;;;16.05;7.20;;;-0.50;92.20;;;;;;5038304;28;20067;-76
2021/03/07 06:58:23;;;;;;;17.40;7.35;;;-0.40;91.20;;;;;;5038582;28;20045;-76
2021/03/07 07:00:49;;;;;;;15.68;7.78;;;-0.10;89.80;;;;;;5040118;28;20436;-76
2021/03/07 07:03:16;;;;;;;17.73;7.90;;;0.20;85.80;;;;;;5038609;28;20035;-77
2021/03/07 07:05:50;;;;;;;19.13;7.13;;;0.70;84.80;;;;;;5034202;28;20045;-76
2021/03/07 07:08:35;;;;;;;18.02;7.07;;;1.00;80.30;;;;;;5037287;28;20128;-77
2021/03/07 07:11:06;;;;;;;14.45;7.20;;;1.30;77.60;;;;;;5041489;28;20033;-77
2021/03/07 07:13:45;;;;;;;17.08;7.38;;;1.60;75.50;;;;;;5040552;28;20068;-77
2021/03/07 07:16:11;;;;;;;17.80;7.13;;;2.00;71.40;;;;;;5037153;28;20076;-76
2021/03/07 07:18:39;;;;;;;17.55;6.90;;;1.90;70.70;;;;;;5041324;28;20721;-77
2021/03/07 07:21:07;;;;;;;16.48;7.15;;;1.70;70.00;;;;;;5055343;28;20039;-76
2021/03/07 07:23:33;;;;;;;13.55;6.70;;;2.10;70.40;;;;;;5040489;28;20574;-77
2021/03/07 07:25:59;;;;;;;14.05;6.35;;;2.30;68.30;;;;;;5036656;28;20033;-78
2021/03/07 07:28:27;;;;;;;18.38;7.78;;;2.30;67.40;;;;;;5039566;28;20029;-78
2021/03/07 07:30:56;;;;;;;19.63;7.60;;;2.30;66.60;;;;;;5038879;28;20166;-78
2021/03/07 07:33:47;;;;;;;20.13;8.07;;;2.50;64.80;;;;;;5036686;28;20033;-77
2021/03/07 07:36:36;;;;;;;19.58;7.32;;;2.90;64.70;;;;;;5030575;28;20494;-77
2021/03/07 07:39:04;;;;;;;14.70;7.03;;;3.00;62.60;;;;;;5037444;28;20036;-76
2021/03/07 07:41:39;;;;;;;22.25;7.47;;;3.00;61.90;;;;;;5040106;28;20048;-77
2021/03/07 07:44:08;;;;;;;15.82;7.32;;;3.00;61.80;;;;;;5037931;28;20047;-77
2021/03/07 07:46:34;;;;;;;14.15;7.32;;;3.10;61.50;;;;;;5037641;28;20517;-77
2021/03/07 07:49:00;;;;;;;22.60;7.40;;;3.20;62.00;;;;;;5039424;28;20049;-77
2021/03/07 07:51:29;;;;;;;22.55;7.25;;;3.20;61.90;;;;;;5038853;28;20718;-77
2021/03/07 07:53:54;;;;;;;15.55;7.82;;;3.30;61.60;;;;;;5039861;28;20035;-77
2021/03/07 07:56:58;;;;;;;20.05;7.25;;;3.50;61.40;;;;;;5035276;28;20417;-78
2021/03/07 07:59:51;;;;;;;22.00;8.38;;;3.50;60.30;;;;;;4994881;28;20129;-77
2021/03/07 08:02:42;;;;;;;20.73;7.55;;;3.90;59.30;;;;;;4994582;28;20046;-77
2021/03/07 08:05:20;;;;;;;15.15;7.25;;;4.00;56.90;;;;;;5032283;28;20054;-77
2021/03/07 08:08:05;;;;;;;15.68;7.45;;;4.20;56.60;;;;;;5039834;28;20311;-77
2021/03/07 08:10:37;;;;;;;17.27;8.05;;;4.10;55.70;;;;;;5040044;28;20464;-78
2021/03/07 08:13:04;;;;;;;19.90;7.63;;;4.30;55.70;;;;;;5037833;28;20085;-77
2021/03/07 08:15:29;;;;;;;13.20;7.32;;;4.40;53.20;;;;;;5036300;28;20048;-77
2021/03/07 08:18:00;;;;;;;13.02;6.90;;;4.40;54.00;;;;;;5036581;28;20037;-77
2021/03/07 08:20:38;;;;;;;19.10;7.50;;;4.40;54.00;;;;;;5037431;28;20068;-78
2021/03/07 08:23:23;;;;;;;15.70;7.10;;;4.50;53.80;;;;;;5037622;28;20175;-78
2021/03/07 08:25:49;;;;;;;15.63;7.50;;;4.50;53.50;;;;;;5038187;28;20659;-78
2021/03/07 08:28:27;;;;;;;16.30;8.15;;;4.70;53.80;;;;;;5037935;28;20048;-78
2021/03/07 08:30:53;;;;;;;15.80;7.10;;;5.20;52.30;;;;;;5036749;28;20079;-76
2021/03/07 08:33:30;;;;;;;15.40;7.97;;;5.90;49.70;;;;;;5038000;28;20037;-76
2021/03/07 08:36:13;;;;;;;19.20;7.50;;;6.10;46.90;;;;;;5035462;28;20041;-77
2021/03/07 08:38:56;;;;;;;15.23;7.85;;;6.50;44.80;;;;;;5039062;28;20087;-76
2021/03/07 08:41:23;;;;;;;12.77;7.25;;;7.40;42.30;;;;;;5040657;28;20547;-78
2021/03/07 08:43:57;;;;;;;15.95;7.63;;;8.00;39.30;;;;;;5040940;28;20084;-78
2021/03/07 08:46:41;;;;;;;;;;;7.60;39.00;;;;;;5040093;28;20029;-78
2021/03/07 08:49:10;;;;;;;19.40;7.85;;;7.90;36.80;;;;;;5041098;28;19920;-76
2021/03/07 08:51:38;;;;;;;13.18;7.13;;;8.40;35.60;;;;;;5033102;28;20037;-77
2021/03/07 08:54:08;;;;;;;13.05;7.47;;;8.50;35.00;;;;;;5040294;28;20039;-77
2021/03/07 08:56:35;;;;;;;16.60;7.90;;;8.70;33.70;;;;;;5039557;28;20040;-77
2021/03/07 08:59:00;;;;;;;19.13;8.32;;;8.10;33.60;;;;;;5041345;28;20037;-77
2021/03/07 09:01:26;;;;;;;18.05;7.55;;;8.50;34.30;;;;;;5055191;28;20060;-77
2021/03/07 09:03:57;;;;;;;16.10;7.07;;;8.80;34.20;;;;;;5039127;28;20041;-77
2021/03/07 09:06:28;;;;;;;14.38;8.18;;;8.80;32.30;;;;;;5038717;28;20025;-76
2021/03/07 09:09:19;;;;;;;15.13;7.47;;;10.20;29.00;;;;;;5043842;28;20413;-76
2021/03/07 09:11:52;;;;;;;16.13;7.63;;;10.20;26.50;;;;;;5040544;28;20033;-76
2021/03/07 09:14:25;;;;;;;16.15;8.05;;;10.70;25.90;;;;;;5042878;28;20124;-78
2021/03/07 09:17:03;;;;;;;15.13;6.95;;;11.30;26.30;;;;;;5041242;28;20037;-79
2021/03/07 09:19:34;;;;;;;14.40;7.63;;;11.90;23.50;;;;;;5130401;23;20134;-76
2021/03/07 09:22:22;;;;;;;13.00;7.78;;;10.60;24.30;;;;;;5042176;28;20036;-76
2021/03/07 09:24:51;;;;;;;15.55;7.70;;;10.00;25.90;;;;;;5022070;28;20049;-78
2021/03/07 09:27:17;;;;;;;16.52;8.15;;;10.50;26.30;;;;;;5023044;28;20049;-77
2021/03/07 09:30:10;;;;;;;13.93;8.02;;;10.00;26.40;;;;;;5018109;28;20076;-77
2021/03/07 09:32:44;;;;;;;15.50;8.45;;;9.20;28.60;;;;;;5017501;28;20044;-78
2021/03/07 09:35:16;;;;;;;14.73;8.63;;;8.60;30.30;;;;;;5018373;28;20037;-77
2021/03/07 09:37:42;;;;;;;16.55;8.40;;;8.50;32.30;;;;;;5018688;28;20038;-77
2021/03/07 09:40:12;;;;;;;23.23;8.60;;;9.00;31.40;;;;;;5017742;28;20060;-76
2021/03/07 09:42:41;;;;;;;22.50;8.50;;;9.60;29.10;;;;;;5021401;28;20515;-76
2021/03/07 09:45:08;;;;;;;15.20;8.75;;;9.30;28.80;;;;;;5018824;28;20064;-76
2021/03/07 09:47:34;;;;;;;14.98;8.10;;;9.60;29.70;;;;;;5026745;28;20565;-75
2021/03/07 09:50:01;;;;;;;15.93;7.72;;;10.10;27.00;;;;;;5028552;28;20048;-78
2021/03/07 09:52:27;;;;;;;15.15;8.40;;;10.30;27.10;;;;;;5021897;28;20033;-77
2021/03/07 09:54:55;;;;;;;16.00;9.73;;;10.40;27.90;;;;;;5016535;28;20053;-76
2021/03/07 09:57:21;;;;;;;14.07;8.25;;;10.30;27.30;;;;;;5017962;28;20069;-76
2021/03/07 09:59:52;;;;;;;14.23;8.23;;;9.90;28.70;;;;;;5022563;28;20037;-75
2021/03/07 10:02:19;;;;;;;16.02;8.85;;;10.00;27.60;;;;;;5010837;28;20314;-74
2021/03/07 10:04:48;;;;;;;20.30;8.55;;;10.20;27.60;;;;;;5012488;28;20045;-76
2021/03/07 10:07:21;;;;;;;13.82;8.02;;;10.80;26.80;;;;;;5009537;28;20107;-75
2021/03/07 10:10:10;;;;;;;18.85;8.68;;;10.00;25.80;;;;;;5012692;28;20053;-76
2021/03/07 10:12:43;;;;;;;14.07;7.95;;;10.00;26.70;;;;;;5028237;28;20383;-76
2021/03/07 10:15:13;;;;;;;17.55;7.80;;;10.20;27.10;;;;;;5031947;28;20040;-76
2021/03/07 10:17:41;;;;;;;14.63;8.55;;;9.70;28.70;;;;;;5019145;28;20037;-75
2021/03/07 10:20:11;;;;;;;16.27;9.07;;;9.90;29.00;;;;;;5040411;28;20037;-76
2021/03/07 10:22:45;;;;;;;16.38;8.88;;;9.80;29.70;;;;;;4990215;28;21770;-76
2021/03/07 10:25:26;;;;;;;17.83;8.75;;;9.70;29.30;;;;;;5016970;28;20041;-76
2021/03/07 10:28:07;;;;;;;15.48;9.00;;;9.20;29.80;;;;;;5018168;28;20044;-76
2021/03/07 10:30:35;;;;;;;14.82;8.20;;;9.50;31.80;;;;;;5031434;28;20038;-75
2021/03/07 10:33:26;;;;;;;18.30;8.75;;;10.00;28.10;;;;;;5013672;28;20061;-75
2021/03/07 10:36:12;;;;;;;15.73;8.35;;;10.10;28.40;;;;;;5021989;28;20568;-75
2021/03/07 10:38:39;;;;;;;16.80;8.73;;;10.60;28.30;;;;;;5020038;28;20144;-75
2021/03/07 10:41:24;;;;;;;14.10;8.85;;;10.60;26.60;;;;;;5022183;28;20045;-76
2021/03/07 10:43:56;;;;;;;14.68;8.88;;;10.40;27.40;;;;;;5030562;28;20549;-75
2021/03/07 10:46:35;;;;;;;17.15;9.02;;;11.40;27.00;;;;;;5023237;28;20037;-76
2021/03/07 10:49:07;;;;;;;18.30;9.10;;;11.70;25.90;;;;;;5018008;28;20030;-76
2021/03/07 10:51:33;;;;;;;14.52;8.95;;;11.20;25.80;;;;;;4996640;28;20048;-75
2021/03/07 10:53:59;;;;;;;16.40;9.15;;;11.30;27.00;;;;;;5015008;28;20048;-75
2021/03/07 10:56:36;;;;;;;19.33;9.55;;;11.10;26.10;;;;;;5015456;28;20045;-75
2021/03/07 10:59:02;;;;;;;18.92;9.50;;;12.30;26.10;;;;;;5015131;28;20095;-75
2021/03/07 11:01:27;;;;;;;17.45;9.38;;;13.20;23.90;;;;;;5013535;28;20047;-76
2021/03/07 11:03:53;;;;;;;18.08;9.63;;;13.70;22.70;;;;;;5012605;28;20041;-75
2021/03/07 11:06:20;;;;;;;17.63;8.70;;;14.20;21.40;;;;;;5017747;28;20464;-75
2021/03/07 11:08:50;;;;;;;16.83;9.68;;;15.00;20.90;;;;;;5032638;28;20084;-76
2021/03/07 11:11:16;;;;;;;16.92;9.93;;;15.30;18.80;;;;;;5012555;28;20045;-76
2021/03/07 11:13:42;;;;;;;15.52;8.55;;;15.30;18.90;;;;;;5025924;28;20038;-76
2021/03/07 11:16:07;;;;;;;18.67;10.73;;;15.20;19.20;;;;;;5009797;28;20034;-76
2021/03/07 11:18:33;;;;;;;17.58;8.63;;;15.50;18.60;;;;;;5020264;28;20041;-76
2021/03/07 11:20:59;;;;;;;17.48;8.68;;;14.90;19.20;;;;;;5029741;28;20041;-76
2021/03/07 11:23:24;;;;;;;17.30;9.68;;;14.80;19.60;;;;;;5026024;28;20029;-76
2021/03/07 11:25:50;;;;;;;18.90;9.73;;;13.30;19.40;;;;;;5022578;28;20700;-76
2021/03/07 11:28:16;;;;;;;18.83;9.73;;;14.60;20.20;;;;;;5011742;28;20065;-76
2021/03/07 11:30:42;;;;;;;17.70;9.75;;;14.10;20.70;;;;;;5027319;28;20049;-75
2021/03/07 11:33:07;;;;;;;15.63;9.02;;;13.90;20.80;;;;;;5020088;28;20048;-75
2021/03/07 11:35:33;;;;;;;18.02;10.30;;;12.90;21.30;;;;;;5037558;28;20490;-75
2021/03/07 11:37:59;;;;;;;17.05;9.85;;;12.80;22.40;;;;;;5005532;28;20521;-75
2021/03/07 11:40:26;;;;;;;15.88;9.38;;;12.80;22.40;;;;;;4999794;28;20468;-76
2021/03/07 11:42:53;;;;;;;16.63;9.10;;;11.90;23.00;;;;;;5006969;28;20565;-75
2021/03/07 11:45:18;;;;;;;21.92;10.90;;;11.80;24.10;;;;;;5000676;28;20507;-75
2021/03/07 11:47:44;;;;;;;15.27;9.23;;;11.00;24.40;;;;;;5001035;28;20053;-75
2021/03/07 11:50:11;;;;;;;17.33;9.80;;;10.40;25.50;;;;;;5007445;28;20038;-75
2021/03/07 11:52:36;;;;;;;19.10;9.88;;;10.30;26.20;;;;;;4992826;28;20061;-76
2021/03/07 11:55:02;;;;;;;15.68;8.93;;;10.00;26.40;;;;;;4994694;28;20046;-75
2021/03/07 11:57:28;;;;;;;20.90;9.55;;;10.00;27.10;;;;;;4992543;28;20065;-75
2021/03/07 11:59:54;;;;;;;16.80;9.23;;;10.20;27.00;;;;;;4991110;28;20169;-75
2021/03/07 12:02:20;;;;;;;18.92;9.27;;;10.10;27.00;;;;;;4995091;28;20478;-75
2021/03/07 12:04:45;;;;;;;19.63;9.95;;;10.20;26.80;;;;;;4995747;28;20047;-75
2021/03/07 12:07:11;;;;;;;20.10;8.85;;;9.60;28.40;;;;;;4994459;28;20061;-75
2021/03/07 12:09:36;;;;;;;17.38;9.35;;;9.60;28.10;;;;;;4998695;28;20463;-76
2021/03/07 12:12:02;;;;;;;18.20;9.95;;;9.60;28.10;;;;;;4996351;28;20034;-75
2021/03/07 12:14:28;;;;;;;19.17;9.77;;;9.20;28.40;;;;;;5010722;28;20045;-75
2021/03/07 12:16:54;;;;;;;21.50;8.48;;;9.50;29.00;;;;;;4995156;28;20095;-75
2021/03/07 12:19:20;;;;;;;18.58;9.75;;;9.20;28.80;;;;;;5008730;28;20099;-75
2021/03/07 12:21:46;;;;;;;23.20;10.32;;;9.10;29.00;;;;;;4994018;28;20042;-75
2021/03/07 12:24:12;;;;;;;21.77;10.60;;;8.90;30.00;;;;;;4992241;28;20568;-75
2021/03/07 12:26:37;;;;;;;20.75;10.10;;;9.20;29.90;;;;;;4995363;28;20682;-75
2021/03/07 12:29:03;;;;;;;20.23;9.98;;;9.40;29.60;;;;;;4993591;28;20034;-75
2021/03/07 12:31:29;;;;;;;17.58;9.73;;;9.40;29.20;;;;;;4993855;28;20091;-75
2021/03/07 12:33:55;;;;;;;17.27;9.10;;;9.50;29.30;;;;;;4994751;28;20663;-75
2021/03/07 12:36:20;;;;;;;16.08;8.88;;;9.70;29.70;;;;;;4993146;28;20038;-76
2021/03/07 12:38:46;;;;;;;20.65;9.77;;;9.50;28.90;;;;;;4994359;28;20030;-76
2021/03/07 12:41:12;;;;;;;16.02;9.68;;;9.60;29.50;;;;;;4992867;28;20042;-76
2021/03/07 12:43:37;;;;;;;20.67;10.15;;;9.80;28.90;;;;;;4994728;28;20038;-76
2021/03/07 12:46:09;;;;;;;20.58;9.70;;;9.70;28.60;;;;;;5023943;28;20029;-77
2021/03/07 12:48:45;;;;;;;18.38;8.82;;;9.70;29.10;;;;;;4993049;28;20030;-78
2021/03/07 12:51:11;;;;;;;18.13;9.50;;;9.40;28.70;;;;;;4989455;28;20044;-77